sensor_id;sensor_type;location;lat;lon;timestamp;temperature;humidity
5647;DHT22;2845;48.626;9.362;2024-03-29T00:00:49;5.90;92.30
5647;DHT22;2845;48.626;9.362;2024-03-29T00:03:22;6.00;92.40
5647;DHT22;2845;48.626;9.362;2024-03-29T00:05:54;6.10;92.10
5647;DHT22;2845;48.626;9.362;2024-03-29T00:08:27;6.20;91.90
5647;DHT22;2845;48.626;9.362;2024-03-29T00:11:00;6.20;91.90
5647;DHT22;2845;48.626;9.362;2024-03-29T00:13:32;6.30;91.80
5647;DHT22;2845;48.626;9.362;2024-03-29T00:16:06;6.30;91.80
5647;DHT22;2845;48.626;9.362;2024-03-29T00:18:38;6.30;91.70
5647;DHT22;2845;48.626;9.362;2024-03-29T00:21:10;6.40;91.70
5647;DHT22;2845;48.626;9.362;2024-03-29T00:23:43;6.40;91.70
5647;DHT22;2845;48.626;9.362;2024-03-29T00:26:15;6.30;91.80
5647;DHT22;2845;48.626;9.362;2024-03-29T00:28:48;6.30;91.80
5647;DHT22;2845;48.626;9.362;2024-03-29T00:31:22;6.20;92.00
5647;DHT22;2845;48.626;9.362;2024-03-29T00:33:54;6.10;92.10
5647;DHT22;2845;48.626;9.362;2024-03-29T00:38:59;6.30;92.10
5647;DHT22;2845;48.626;9.362;2024-03-29T00:41:32;6.90;92.10
5647;DHT22;2845;48.626;9.362;2024-03-29T00:44:04;6.50;92.00
5647;DHT22;2845;48.626;9.362;2024-03-29T00:46:38;6.40;92.00
5647;DHT22;2845;48.626;9.362;2024-03-29T00:49:10;6.40;92.00
5647;DHT22;2845;48.626;9.362;2024-03-29T00:51:42;6.30;91.80
5647;DHT22;2845;48.626;9.362;2024-03-29T00:54:15;6.50;92.00
5647;DHT22;2845;48.626;9.362;2024-03-29T00:56:47;6.50;91.80
5647;DHT22;2845;48.626;9.362;2024-03-29T00:59:19;6.40;92.00
5647;DHT22;2845;48.626;9.362;2024-03-29T01:01:53;6.30;92.00
5647;DHT22;2845;48.626;9.362;2024-03-29T01:04:26;6.30;92.10
5647;DHT22;2845;48.626;9.362;2024-03-29T01:06:58;6.30;92.30
5647;DHT22;2845;48.626;9.362;2024-03-29T01:09:31;6.20;92.30
5647;DHT22;2845;48.626;9.362;2024-03-29T01:12:03;6.20;92.30
5647;DHT22;2845;48.626;9.362;2024-03-29T01:14:37;6.10;92.40
5647;DHT22;2845;48.626;9.362;2024-03-29T01:17:11;6.10;92.40
5647;DHT22;2845;48.626;9.362;2024-03-29T01:19:43;6.00;92.40
5647;DHT22;2845;48.626;9.362;2024-03-29T01:22:15;6.00;92.50
5647;DHT22;2845;48.626;9.362;2024-03-29T01:24:48;5.90;92.40
5647;DHT22;2845;48.626;9.362;2024-03-29T01:27:20;5.90;92.50
5647;DHT22;2845;48.626;9.362;2024-03-29T01:29:53;5.90;92.70
5647;DHT22;2845;48.626;9.362;2024-03-29T01:32:26;5.90;92.60
5647;DHT22;2845;48.626;9.362;2024-03-29T01:34:59;5.80;92.50
5647;DHT22;2845;48.626;9.362;2024-03-29T01:37:31;5.70;92.50
5647;DHT22;2845;48.626;9.362;2024-03-29T01:40:04;5.60;92.80
5647;DHT22;2845;48.626;9.362;2024-03-29T01:42:37;5.60;92.80
5647;DHT22;2845;48.626;9.362;2024-03-29T01:45:09;5.60;92.90
5647;DHT22;2845;48.626;9.362;2024-03-29T01:47:44;5.60;92.80
5647;DHT22;2845;48.626;9.362;2024-03-29T01:50:17;5.60;93.00
5647;DHT22;2845;48.626;9.362;2024-03-29T01:52:51;5.60;92.80
5647;DHT22;2845;48.626;9.362;2024-03-29T01:55:25;5.70;92.90
5647;DHT22;2845;48.626;9.362;2024-03-29T01:57:59;5.70;92.80
5647;DHT22;2845;48.626;9.362;2024-03-29T02:00:32;5.70;92.70
5647;DHT22;2845;48.626;9.362;2024-03-29T02:03:07;5.70;92.70
5647;DHT22;2845;48.626;9.362;2024-03-29T02:05:46;5.90;92.70
5647;DHT22;2845;48.626;9.362;2024-03-29T02:08:19;5.90;92.70
5647;DHT22;2845;48.626;9.362;2024-03-29T02:10:52;9.20;93.40
5647;DHT22;2845;48.626;9.362;2024-03-29T02:13:26;5.90;92.60
5647;DHT22;2845;48.626;9.362;2024-03-29T02:15:59;6.00;92.70
5647;DHT22;2845;48.626;9.362;2024-03-29T02:18:33;6.00;92.70
5647;DHT22;2845;48.626;9.362;2024-03-29T02:21:07;6.00;92.70
5647;DHT22;2845;48.626;9.362;2024-03-29T02:23:43;6.00;92.60
5647;DHT22;2845;48.626;9.362;2024-03-29T02:26:18;6.10;92.60
5647;DHT22;2845;48.626;9.362;2024-03-29T02:28:51;6.20;92.50
5647;DHT22;2845;48.626;9.362;2024-03-29T02:31:24;6.10;92.60
5647;DHT22;2845;48.626;9.362;2024-03-29T02:33:57;6.20;92.70
5647;DHT22;2845;48.626;9.362;2024-03-29T02:36:31;6.20;92.60
5647;DHT22;2845;48.626;9.362;2024-03-29T02:39:04;6.80;92.60
5647;DHT22;2845;48.626;9.362;2024-03-29T02:41:38;6.10;92.40
5647;DHT22;2845;48.626;9.362;2024-03-29T02:44:11;6.20;92.50
5647;DHT22;2845;48.626;9.362;2024-03-29T02:46:47;6.30;92.50
5647;DHT22;2845;48.626;9.362;2024-03-29T02:49:20;6.30;92.40
5647;DHT22;2845;48.626;9.362;2024-03-29T02:51:53;6.20;92.30
5647;DHT22;2845;48.626;9.362;2024-03-29T02:54:26;6.30;92.40
5647;DHT22;2845;48.626;9.362;2024-03-29T02:57:01;6.20;92.30
5647;DHT22;2845;48.626;9.362;2024-03-29T02:59:33;6.10;92.40
5647;DHT22;2845;48.626;9.362;2024-03-29T03:02:06;6.10;92.30
5647;DHT22;2845;48.626;9.362;2024-03-29T03:04:39;6.10;92.40
5647;DHT22;2845;48.626;9.362;2024-03-29T03:07:12;6.00;92.50
5647;DHT22;2845;48.626;9.362;2024-03-29T03:10:03;6.00;92.60
5647;DHT22;2845;48.626;9.362;2024-03-29T03:12:55;6.00;92.50
5647;DHT22;2845;48.626;9.362;2024-03-29T03:15:29;6.10;92.60
5647;DHT22;2845;48.626;9.362;2024-03-29T03:18:02;8.50;92.70
5647;DHT22;2845;48.626;9.362;2024-03-29T03:20:35;6.30;91.80
5647;DHT22;2845;48.626;9.362;2024-03-29T03:23:09;6.40;92.00
5647;DHT22;2845;48.626;9.362;2024-03-29T03:25:43;8.40;92.60
5647;DHT22;2845;48.626;9.362;2024-03-29T03:28:17;6.40;92.10
5647;DHT22;2845;48.626;9.362;2024-03-29T03:30:50;6.50;91.70
5647;DHT22;2845;48.626;9.362;2024-03-29T03:33:23;6.60;91.50
5647;DHT22;2845;48.626;9.362;2024-03-29T03:35:56;6.60;91.60
5647;DHT22;2845;48.626;9.362;2024-03-29T03:38:28;6.60;91.70
5647;DHT22;2845;48.626;9.362;2024-03-29T03:41:02;6.60;91.70
5647;DHT22;2845;48.626;9.362;2024-03-29T03:43:35;6.60;91.80
5647;DHT22;2845;48.626;9.362;2024-03-29T03:46:08;6.50;91.80
5647;DHT22;2845;48.626;9.362;2024-03-29T03:48:41;6.50;91.80
5647;DHT22;2845;48.626;9.362;2024-03-29T03:51:14;6.50;92.00
5647;DHT22;2845;48.626;9.362;2024-03-29T03:53:46;6.50;92.00
5647;DHT22;2845;48.626;9.362;2024-03-29T03:56:19;6.50;91.90
5647;DHT22;2845;48.626;9.362;2024-03-29T03:58:53;6.50;92.00
5647;DHT22;2845;48.626;9.362;2024-03-29T04:01:27;6.60;92.30
5647;DHT22;2845;48.626;9.362;2024-03-29T04:03:59;6.70;92.00
5647;DHT22;2845;48.626;9.362;2024-03-29T04:06:32;6.70;91.70
5647;DHT22;2845;48.626;9.362;2024-03-29T04:09:05;6.80;91.50
5647;DHT22;2845;48.626;9.362;2024-03-29T04:11:38;6.90;91.60
5647;DHT22;2845;48.626;9.362;2024-03-29T04:14:12;6.90;91.60
5647;DHT22;2845;48.626;9.362;2024-03-29T04:16:46;6.80;91.50
5647;DHT22;2845;48.626;9.362;2024-03-29T04:19:18;10.30;92.30
5647;DHT22;2845;48.626;9.362;2024-03-29T04:21:53;6.90;91.80
5647;DHT22;2845;48.626;9.362;2024-03-29T04:24:25;6.90;91.70
5647;DHT22;2845;48.626;9.362;2024-03-29T04:26:58;6.90;91.70
5647;DHT22;2845;48.626;9.362;2024-03-29T04:29:32;6.90;91.70
5647;DHT22;2845;48.626;9.362;2024-03-29T04:32:06;6.90;91.60
5647;DHT22;2845;48.626;9.362;2024-03-29T04:34:38;6.90;91.70
5647;DHT22;2845;48.626;9.362;2024-03-29T04:37:11;6.90;91.90
5647;DHT22;2845;48.626;9.362;2024-03-29T04:39:45;6.90;91.90
5647;DHT22;2845;48.626;9.362;2024-03-29T04:42:18;6.90;91.90
5647;DHT22;2845;48.626;9.362;2024-03-29T04:44:53;6.90;92.00
5647;DHT22;2845;48.626;9.362;2024-03-29T04:47:26;7.00;92.00
5647;DHT22;2845;48.626;9.362;2024-03-29T04:49:59;7.00;92.10
5647;DHT22;2845;48.626;9.362;2024-03-29T04:52:33;7.00;92.10
5647;DHT22;2845;48.626;9.362;2024-03-29T04:55:06;7.00;92.10
5647;DHT22;2845;48.626;9.362;2024-03-29T04:57:40;7.00;92.30
5647;DHT22;2845;48.626;9.362;2024-03-29T05:00:16;7.00;92.40
5647;DHT22;2845;48.626;9.362;2024-03-29T05:02:50;7.10;92.40
5647;DHT22;2845;48.626;9.362;2024-03-29T05:05:23;8.60;92.60
5647;DHT22;2845;48.626;9.362;2024-03-29T05:07:56;7.00;92.30
5647;DHT22;2845;48.626;9.362;2024-03-29T05:10:30;7.00;92.30
5647;DHT22;2845;48.626;9.362;2024-03-29T05:13:04;6.90;92.30
5647;DHT22;2845;48.626;9.362;2024-03-29T05:15:38;6.70;92.10
5647;DHT22;2845;48.626;9.362;2024-03-29T05:18:11;7.00;92.50
5647;DHT22;2845;48.626;9.362;2024-03-29T05:20:44;7.00;92.10
5647;DHT22;2845;48.626;9.362;2024-03-29T05:23:22;6.90;92.10
5647;DHT22;2845;48.626;9.362;2024-03-29T05:25:56;6.90;92.30
5647;DHT22;2845;48.626;9.362;2024-03-29T05:28:29;6.90;92.40
5647;DHT22;2845;48.626;9.362;2024-03-29T05:31:12;7.00;92.50
5647;DHT22;2845;48.626;9.362;2024-03-29T05:33:46;7.00;92.50
5647;DHT22;2845;48.626;9.362;2024-03-29T05:36:19;7.70;92.70
5647;DHT22;2845;48.626;9.362;2024-03-29T05:38:52;7.00;92.70
5647;DHT22;2845;48.626;9.362;2024-03-29T05:41:26;7.00;92.70
5647;DHT22;2845;48.626;9.362;2024-03-29T05:44:00;7.00;92.70
5647;DHT22;2845;48.626;9.362;2024-03-29T05:46:34;8.30;93.00
5647;DHT22;2845;48.626;9.362;2024-03-29T05:49:07;7.00;92.60
5647;DHT22;2845;48.626;9.362;2024-03-29T05:51:40;7.10;92.80
5647;DHT22;2845;48.626;9.362;2024-03-29T05:54:14;7.10;92.80
5647;DHT22;2845;48.626;9.362;2024-03-29T05:56:47;7.10;92.80
5647;DHT22;2845;48.626;9.362;2024-03-29T05:59:20;7.20;92.90
5647;DHT22;2845;48.626;9.362;2024-03-29T06:01:54;7.10;92.80
5647;DHT22;2845;48.626;9.362;2024-03-29T06:04:28;7.30;92.80
5647;DHT22;2845;48.626;9.362;2024-03-29T06:07:05;7.40;92.90
5647;DHT22;2845;48.626;9.362;2024-03-29T06:09:40;10.60;93.40
5647;DHT22;2845;48.626;9.362;2024-03-29T06:12:13;7.50;92.60
5647;DHT22;2845;48.626;9.362;2024-03-29T06:14:46;7.60;92.50
5647;DHT22;2845;48.626;9.362;2024-03-29T06:17:38;7.60;92.50
5647;DHT22;2845;48.626;9.362;2024-03-29T06:20:12;7.70;92.50
5647;DHT22;2845;48.626;9.362;2024-03-29T06:22:46;9.00;92.60
5647;DHT22;2845;48.626;9.362;2024-03-29T06:25:20;8.00;92.30
5647;DHT22;2845;48.626;9.362;2024-03-29T06:27:53;8.20;92.40
5647;DHT22;2845;48.626;9.362;2024-03-29T06:30:26;8.30;92.20
5647;DHT22;2845;48.626;9.362;2024-03-29T06:33:01;8.40;92.10
5647;DHT22;2845;48.626;9.362;2024-03-29T06:35:35;8.50;92.00
5647;DHT22;2845;48.626;9.362;2024-03-29T06:38:08;8.50;91.90
5647;DHT22;2845;48.626;9.362;2024-03-29T06:40:41;8.60;91.60
5647;DHT22;2845;48.626;9.362;2024-03-29T06:43:15;10.00;92.00
5647;DHT22;2845;48.626;9.362;2024-03-29T06:45:48;8.70;91.40
5647;DHT22;2845;48.626;9.362;2024-03-29T06:48:22;8.80;91.40
5647;DHT22;2845;48.626;9.362;2024-03-29T06:50:56;8.90;91.40
5647;DHT22;2845;48.626;9.362;2024-03-29T06:53:29;9.20;91.10
5647;DHT22;2845;48.626;9.362;2024-03-29T06:56:03;9.40;90.90
5647;DHT22;2845;48.626;9.362;2024-03-29T06:58:37;9.50;90.80
5647;DHT22;2845;48.626;9.362;2024-03-29T07:01:10;9.50;90.70
5647;DHT22;2845;48.626;9.362;2024-03-29T07:03:44;9.60;90.40
5647;DHT22;2845;48.626;9.362;2024-03-29T07:06:17;9.50;90.20
5647;DHT22;2845;48.626;9.362;2024-03-29T07:08:51;10.40;90.40
5647;DHT22;2845;48.626;9.362;2024-03-29T07:11:24;9.50;90.10
5647;DHT22;2845;48.626;9.362;2024-03-29T07:13:57;11.60;90.60
5647;DHT22;2845;48.626;9.362;2024-03-29T07:16:30;9.60;90.00
5647;DHT22;2845;48.626;9.362;2024-03-29T07:19:05;9.60;90.10
5647;DHT22;2845;48.626;9.362;2024-03-29T07:21:38;10.20;90.20
5647;DHT22;2845;48.626;9.362;2024-03-29T07:24:11;9.60;90.10
5647;DHT22;2845;48.626;9.362;2024-03-29T07:26:44;9.60;90.20
5647;DHT22;2845;48.626;9.362;2024-03-29T07:29:18;9.50;90.30
5647;DHT22;2845;48.626;9.362;2024-03-29T07:31:51;9.50;90.90
5647;DHT22;2845;48.626;9.362;2024-03-29T07:34:25;9.40;91.20
5647;DHT22;2845;48.626;9.362;2024-03-29T07:36:59;9.90;91.70
5647;DHT22;2845;48.626;9.362;2024-03-29T07:39:32;9.20;91.80
5647;DHT22;2845;48.626;9.362;2024-03-29T07:42:05;9.10;92.10
5647;DHT22;2845;48.626;9.362;2024-03-29T07:44:38;9.10;92.40
5647;DHT22;2845;48.626;9.362;2024-03-29T07:47:12;9.00;93.00
5647;DHT22;2845;48.626;9.362;2024-03-29T07:52:21;9.00;93.40
5647;DHT22;2845;48.626;9.362;2024-03-29T07:54:54;9.00;93.40
5647;DHT22;2845;48.626;9.362;2024-03-29T07:57:27;13.00;94.30
5647;DHT22;2845;48.626;9.362;2024-03-29T08:00:05;9.40;93.60
5647;DHT22;2845;48.626;9.362;2024-03-29T08:02:38;9.50;93.20
5647;DHT22;2845;48.626;9.362;2024-03-29T08:05:13;9.70;93.40
5647;DHT22;2845;48.626;9.362;2024-03-29T08:07:47;9.80;93.40
5647;DHT22;2845;48.626;9.362;2024-03-29T08:10:20;9.90;93.60
5647;DHT22;2845;48.626;9.362;2024-03-29T08:12:53;10.30;93.50
5647;DHT22;2845;48.626;9.362;2024-03-29T08:15:27;10.20;93.10
5647;DHT22;2845;48.626;9.362;2024-03-29T08:18:00;11.30;92.60
5647;DHT22;2845;48.626;9.362;2024-03-29T08:20:34;12.10;92.30
5647;DHT22;2845;48.626;9.362;2024-03-29T08:23:08;10.50;92.20
5647;DHT22;2845;48.626;9.362;2024-03-29T08:25:41;10.50;92.60
5647;DHT22;2845;48.626;9.362;2024-03-29T08:28:14;12.60;93.20
5647;DHT22;2845;48.626;9.362;2024-03-29T08:30:57;11.20;93.00
5647;DHT22;2845;48.626;9.362;2024-03-29T08:33:31;10.40;92.90
5647;DHT22;2845;48.626;9.362;2024-03-29T08:38:43;10.40;92.90
5647;DHT22;2845;48.626;9.362;2024-03-29T08:41:18;12.10;93.30
5647;DHT22;2845;48.626;9.362;2024-03-29T08:43:51;10.60;92.60
5647;DHT22;2845;48.626;9.362;2024-03-29T08:46:24;12.70;93.10
5647;DHT22;2845;48.626;9.362;2024-03-29T08:48:59;11.10;92.50
5647;DHT22;2845;48.626;9.362;2024-03-29T08:51:34;12.60;92.90
5647;DHT22;2845;48.626;9.362;2024-03-29T08:54:07;11.60;92.60
5647;DHT22;2845;48.626;9.362;2024-03-29T08:56:40;11.80;92.60
5647;DHT22;2845;48.626;9.362;2024-03-29T08:59:14;11.80;92.60
5647;DHT22;2845;48.626;9.362;2024-03-29T09:01:47;11.80;92.50
5647;DHT22;2845;48.626;9.362;2024-03-29T09:04:21;14.90;93.20
5647;DHT22;2845;48.626;9.362;2024-03-29T09:06:57;14.80;93.10
5647;DHT22;2845;48.626;9.362;2024-03-29T09:09:31;11.90;92.30
5647;DHT22;2845;48.626;9.362;2024-03-29T09:12:06;11.90;92.30
5647;DHT22;2845;48.626;9.362;2024-03-29T09:14:39;11.90;91.90
5647;DHT22;2845;48.626;9.362;2024-03-29T09:17:13;12.30;92.10
5647;DHT22;2845;48.626;9.362;2024-03-29T09:19:46;11.70;91.60
5647;DHT22;2845;48.626;9.362;2024-03-29T09:22:20;14.10;92.60
5647;DHT22;2845;48.626;9.362;2024-03-29T09:24:54;11.60;91.90
5647;DHT22;2845;48.626;9.362;2024-03-29T09:27:28;13.30;92.60
5647;DHT22;2845;48.626;9.362;2024-03-29T09:30:01;11.70;92.00
5647;DHT22;2845;48.626;9.362;2024-03-29T09:32:36;11.80;92.20
5647;DHT22;2845;48.626;9.362;2024-03-29T09:35:09;11.80;92.00
5647;DHT22;2845;48.626;9.362;2024-03-29T09:37:43;11.90;92.20
5647;DHT22;2845;48.626;9.362;2024-03-29T09:40:17;12.50;91.70
5647;DHT22;2845;48.626;9.362;2024-03-29T09:42:51;11.60;91.20
5647;DHT22;2845;48.626;9.362;2024-03-29T09:45:24;11.40;91.50
5647;DHT22;2845;48.626;9.362;2024-03-29T09:47:58;11.30;91.80
5647;DHT22;2845;48.626;9.362;2024-03-29T09:50:34;11.30;92.20
5647;DHT22;2845;48.626;9.362;2024-03-29T09:53:09;13.50;93.00
5647;DHT22;2845;48.626;9.362;2024-03-29T09:55:42;11.70;92.60
5647;DHT22;2845;48.626;9.362;2024-03-29T09:58:16;12.00;92.50
5647;DHT22;2845;48.626;9.362;2024-03-29T10:00:49;12.20;92.40
5647;DHT22;2845;48.626;9.362;2024-03-29T10:03:23;13.40;92.40
5647;DHT22;2845;48.626;9.362;2024-03-29T10:06:01;12.50;91.40
5647;DHT22;2845;48.626;9.362;2024-03-29T10:08:36;12.50;91.20
5647;DHT22;2845;48.626;9.362;2024-03-29T10:11:10;12.60;91.60
5647;DHT22;2845;48.626;9.362;2024-03-29T10:13:43;12.80;91.40
5647;DHT22;2845;48.626;9.362;2024-03-29T10:16:19;12.80;91.40
5647;DHT22;2845;48.626;9.362;2024-03-29T10:18:54;12.80;91.40
5647;DHT22;2845;48.626;9.362;2024-03-29T10:21:28;13.80;91.10
5647;DHT22;2845;48.626;9.362;2024-03-29T10:24:12;13.00;91.00
5647;DHT22;2845;48.626;9.362;2024-03-29T10:26:48;13.20;91.10
5647;DHT22;2845;48.626;9.362;2024-03-29T10:29:27;13.40;90.90
5647;DHT22;2845;48.626;9.362;2024-03-29T10:32:01;14.50;90.60
5647;DHT22;2845;48.626;9.362;2024-03-29T10:34:35;13.70;90.20
5647;DHT22;2845;48.626;9.362;2024-03-29T10:37:09;14.50;90.50
5647;DHT22;2845;48.626;9.362;2024-03-29T10:39:44;16.60;90.80
5647;DHT22;2845;48.626;9.362;2024-03-29T10:42:19;13.90;90.10
5647;DHT22;2845;48.626;9.362;2024-03-29T10:44:54;16.30;90.80
5647;DHT22;2845;48.626;9.362;2024-03-29T10:47:29;13.70;89.70
5647;DHT22;2845;48.626;9.362;2024-03-29T10:50:03;14.10;90.20
5647;DHT22;2845;48.626;9.362;2024-03-29T10:52:38;13.80;89.80
5647;DHT22;2845;48.626;9.362;2024-03-29T10:55:13;14.90;90.00
5647;DHT22;2845;48.626;9.362;2024-03-29T10:57:48;14.10;89.30
5647;DHT22;2845;48.626;9.362;2024-03-29T11:00:24;14.30;89.40
5647;DHT22;2845;48.626;9.362;2024-03-29T11:03:05;14.40;89.30
5647;DHT22;2845;48.626;9.362;2024-03-29T11:05:46;14.30;88.50
5647;DHT22;2845;48.626;9.362;2024-03-29T11:08:23;13.30;88.80
5647;DHT22;2845;48.626;9.362;2024-03-29T11:10:59;14.30;89.20
5647;DHT22;2845;48.626;9.362;2024-03-29T11:13:37;14.40;90.10
5647;DHT22;2845;48.626;9.362;2024-03-29T11:16:12;15.50;90.50
5647;DHT22;2845;48.626;9.362;2024-03-29T11:18:48;15.90;90.40
5647;DHT22;2845;48.626;9.362;2024-03-29T11:21:23;14.40;89.00
5647;DHT22;2845;48.626;9.362;2024-03-29T11:24:04;14.50;88.70
5647;DHT22;2845;48.626;9.362;2024-03-29T11:26:39;14.80;88.40
5647;DHT22;2845;48.626;9.362;2024-03-29T11:29:20;14.90;88.70
5647;DHT22;2845;48.626;9.362;2024-03-29T11:31:57;15.10;89.20
5647;DHT22;2845;48.626;9.362;2024-03-29T11:34:31;15.20;89.20
5647;DHT22;2845;48.626;9.362;2024-03-29T11:37:09;15.30;88.30
5647;DHT22;2845;48.626;9.362;2024-03-29T11:39:47;15.30;87.30
5647;DHT22;2845;48.626;9.362;2024-03-29T11:42:38;15.30;87.60
5647;DHT22;2845;48.626;9.362;2024-03-29T11:45:17;15.30;87.30
5647;DHT22;2845;48.626;9.362;2024-03-29T11:47:50;15.20;87.60
5647;DHT22;2845;48.626;9.362;2024-03-29T11:50:25;15.20;86.70
5647;DHT22;2845;48.626;9.362;2024-03-29T11:53:02;15.20;87.00
5647;DHT22;2845;48.626;9.362;2024-03-29T11:55:35;15.20;87.20
5647;DHT22;2845;48.626;9.362;2024-03-29T11:58:10;15.30;87.00
5647;DHT22;2845;48.626;9.362;2024-03-29T12:00:43;15.30;86.70
5647;DHT22;2845;48.626;9.362;2024-03-29T12:03:19;15.50;87.50
5647;DHT22;2845;48.626;9.362;2024-03-29T12:05:56;15.80;87.00
5647;DHT22;2845;48.626;9.362;2024-03-29T12:08:34;16.10;86.80
5647;DHT22;2845;48.626;9.362;2024-03-29T12:11:09;16.40;85.50
5647;DHT22;2845;48.626;9.362;2024-03-29T12:13:44;16.40;84.40
5647;DHT22;2845;48.626;9.362;2024-03-29T12:16:18;16.30;84.30
5647;DHT22;2845;48.626;9.362;2024-03-29T12:18:54;16.50;84.70
5647;DHT22;2845;48.626;9.362;2024-03-29T12:21:27;16.30;84.80
5647;DHT22;2845;48.626;9.362;2024-03-29T12:24:01;16.30;84.50
5647;DHT22;2845;48.626;9.362;2024-03-29T12:26:34;16.40;85.40
5647;DHT22;2845;48.626;9.362;2024-03-29T12:31:43;16.80;83.50
5647;DHT22;2845;48.626;9.362;2024-03-29T12:34:21;16.90;83.50
5647;DHT22;2845;48.626;9.362;2024-03-29T12:36:57;17.10;82.50
5647;DHT22;2845;48.626;9.362;2024-03-29T12:39:32;17.30;82.10
5647;DHT22;2845;48.626;9.362;2024-03-29T12:42:10;17.40;81.80
5647;DHT22;2845;48.626;9.362;2024-03-29T12:47:19;17.10;81.60
5647;DHT22;2845;48.626;9.362;2024-03-29T12:49:52;17.00;82.00
5647;DHT22;2845;48.626;9.362;2024-03-29T12:52:27;17.00;82.10
5647;DHT22;2845;48.626;9.362;2024-03-29T12:55:00;19.10;83.10
5647;DHT22;2845;48.626;9.362;2024-03-29T12:57:38;17.20;82.10
5647;DHT22;2845;48.626;9.362;2024-03-29T13:00:16;17.10;81.40
5647;DHT22;2845;48.626;9.362;2024-03-29T13:02:49;17.00;82.70
5647;DHT22;2845;48.626;9.362;2024-03-29T13:05:23;17.10;82.70
5647;DHT22;2845;48.626;9.362;2024-03-29T13:07:57;17.10;82.90
5647;DHT22;2845;48.626;9.362;2024-03-29T13:10:30;17.20;82.10
5647;DHT22;2845;48.626;9.362;2024-03-29T13:13:05;17.50;81.70
5647;DHT22;2845;48.626;9.362;2024-03-29T13:15:40;17.40;81.40
5647;DHT22;2845;48.626;9.362;2024-03-29T13:18:15;17.20;81.60
5647;DHT22;2845;48.626;9.362;2024-03-29T13:20:50;17.10;81.70
5647;DHT22;2845;48.626;9.362;2024-03-29T13:23:23;16.90;80.10
5647;DHT22;2845;48.626;9.362;2024-03-29T13:25:56;18.80;82.00
5647;DHT22;2845;48.626;9.362;2024-03-29T13:28:31;16.60;81.80
5647;DHT22;2845;48.626;9.362;2024-03-29T13:33:40;16.60;80.50
5647;DHT22;2845;48.626;9.362;2024-03-29T13:36:13;16.60;80.50
5647;DHT22;2845;48.626;9.362;2024-03-29T13:38:47;16.70;80.40
5647;DHT22;2845;48.626;9.362;2024-03-29T13:41:20;16.70;81.90
5647;DHT22;2845;48.626;9.362;2024-03-29T13:43:53;16.90;81.60
5647;DHT22;2845;48.626;9.362;2024-03-29T13:46:28;16.90;80.60
5647;DHT22;2845;48.626;9.362;2024-03-29T13:49:01;17.00;80.70
5647;DHT22;2845;48.626;9.362;2024-03-29T13:51:35;17.00;80.90
5647;DHT22;2845;48.626;9.362;2024-03-29T13:54:08;17.10;82.30
5647;DHT22;2845;48.626;9.362;2024-03-29T13:56:42;17.50;81.10
5647;DHT22;2845;48.626;9.362;2024-03-29T13:59:15;17.20;81.30
5647;DHT22;2845;48.626;9.362;2024-03-29T14:01:50;17.30;81.50
5647;DHT22;2845;48.626;9.362;2024-03-29T14:04:23;17.40;80.70
5647;DHT22;2845;48.626;9.362;2024-03-29T14:06:56;17.40;80.80
5647;DHT22;2845;48.626;9.362;2024-03-29T14:09:29;17.50;80.00
5647;DHT22;2845;48.626;9.362;2024-03-29T14:12:03;17.60;81.30
5647;DHT22;2845;48.626;9.362;2024-03-29T14:14:36;17.60;79.80
5647;DHT22;2845;48.626;9.362;2024-03-29T14:17:13;17.70;80.10
5647;DHT22;2845;48.626;9.362;2024-03-29T14:19:48;17.60;81.40
5647;DHT22;2845;48.626;9.362;2024-03-29T14:22:22;17.50;81.00
5647;DHT22;2845;48.626;9.362;2024-03-29T14:24:56;17.40;80.50
5647;DHT22;2845;48.626;9.362;2024-03-29T14:27:29;17.50;79.90
5647;DHT22;2845;48.626;9.362;2024-03-29T14:30:04;17.70;80.00
5647;DHT22;2845;48.626;9.362;2024-03-29T14:32:39;17.90;80.10
5647;DHT22;2845;48.626;9.362;2024-03-29T14:35:14;18.00;79.10
5647;DHT22;2845;48.626;9.362;2024-03-29T14:37:48;17.90;79.70
5647;DHT22;2845;48.626;9.362;2024-03-29T14:40:21;17.90;78.60
5647;DHT22;2845;48.626;9.362;2024-03-29T14:42:54;17.80;79.30
5647;DHT22;2845;48.626;9.362;2024-03-29T14:45:30;17.70;80.40
5647;DHT22;2845;48.626;9.362;2024-03-29T14:48:05;17.80;80.10
5647;DHT22;2845;48.626;9.362;2024-03-29T14:50:41;18.00;80.10
5647;DHT22;2845;48.626;9.362;2024-03-29T14:53:15;18.00;80.00
5647;DHT22;2845;48.626;9.362;2024-03-29T14:55:48;17.90;80.40
5647;DHT22;2845;48.626;9.362;2024-03-29T14:58:21;17.90;79.80
5647;DHT22;2845;48.626;9.362;2024-03-29T15:00:53;17.90;80.00
5647;DHT22;2845;48.626;9.362;2024-03-29T15:03:28;18.00;80.00
5647;DHT22;2845;48.626;9.362;2024-03-29T15:06:01;18.00;78.90
5647;DHT22;2845;48.626;9.362;2024-03-29T15:08:34;18.00;80.50
5647;DHT22;2845;48.626;9.362;2024-03-29T15:11:07;18.00;79.80
5647;DHT22;2845;48.626;9.362;2024-03-29T15:13:41;18.00;79.50
5647;DHT22;2845;48.626;9.362;2024-03-29T15:16:14;18.00;80.30
5647;DHT22;2845;48.626;9.362;2024-03-29T15:18:49;18.00;80.00
5647;DHT22;2845;48.626;9.362;2024-03-29T15:21:22;18.00;80.50
5647;DHT22;2845;48.626;9.362;2024-03-29T15:23:56;17.90;81.10
5647;DHT22;2845;48.626;9.362;2024-03-29T15:26:29;17.80;81.00
5647;DHT22;2845;48.626;9.362;2024-03-29T15:29:04;17.80;80.90
5647;DHT22;2845;48.626;9.362;2024-03-29T15:31:42;17.80;80.80
5647;DHT22;2845;48.626;9.362;2024-03-29T15:34:22;17.80;80.40
5647;DHT22;2845;48.626;9.362;2024-03-29T15:36:55;20.30;82.20
5647;DHT22;2845;48.626;9.362;2024-03-29T15:39:29;18.20;83.20
5647;DHT22;2845;48.626;9.362;2024-03-29T15:42:02;17.70;82.10
5647;DHT22;2845;48.626;9.362;2024-03-29T15:44:36;16.70;81.40
5647;DHT22;2845;48.626;9.362;2024-03-29T15:47:09;18.20;82.70
5647;DHT22;2845;48.626;9.362;2024-03-29T15:49:46;17.80;82.60
5647;DHT22;2845;48.626;9.362;2024-03-29T15:52:22;17.50;83.50
5647;DHT22;2845;48.626;9.362;2024-03-29T15:54:56;22.50;86.60
5647;DHT22;2845;48.626;9.362;2024-03-29T15:57:29;15.40;83.10
5647;DHT22;2845;48.626;9.362;2024-03-29T16:00:03;17.40;84.80
5647;DHT22;2845;48.626;9.362;2024-03-29T16:02:46;17.20;82.10
5647;DHT22;2845;48.626;9.362;2024-03-29T16:05:27;17.10;81.90
5647;DHT22;2845;48.626;9.362;2024-03-29T16:08:00;17.20;84.70
5647;DHT22;2845;48.626;9.362;2024-03-29T16:10:34;17.00;84.20
5647;DHT22;2845;48.626;9.362;2024-03-29T16:13:10;16.80;83.00
5647;DHT22;2845;48.626;9.362;2024-03-29T16:15:44;16.80;82.30
5647;DHT22;2845;48.626;9.362;2024-03-29T16:18:18;19.80;84.00
5647;DHT22;2845;48.626;9.362;2024-03-29T16:20:54;17.70;84.00
5647;DHT22;2845;48.626;9.362;2024-03-29T16:23:27;14.60;83.30
5647;DHT22;2845;48.626;9.362;2024-03-29T16:26:03;16.30;81.90
5647;DHT22;2845;48.626;9.362;2024-03-29T16:28:36;16.40;81.80
5647;DHT22;2845;48.626;9.362;2024-03-29T16:31:10;16.30;83.00
5647;DHT22;2845;48.626;9.362;2024-03-29T16:33:42;18.30;84.00
5647;DHT22;2845;48.626;9.362;2024-03-29T16:36:18;16.10;82.10
5647;DHT22;2845;48.626;9.362;2024-03-29T16:38:50;16.10;84.10
5647;DHT22;2845;48.626;9.362;2024-03-29T16:41:24;18.00;86.40
5647;DHT22;2845;48.626;9.362;2024-03-29T16:43:58;16.50;83.20
5647;DHT22;2845;48.626;9.362;2024-03-29T16:46:31;19.30;85.60
5647;DHT22;2845;48.626;9.362;2024-03-29T16:49:04;17.20;86.80
5647;DHT22;2845;48.626;9.362;2024-03-29T16:51:38;15.40;86.50
5647;DHT22;2845;48.626;9.362;2024-03-29T16:54:12;17.80;88.10
5647;DHT22;2845;48.626;9.362;2024-03-29T16:56:50;15.70;86.20
5647;DHT22;2845;48.626;9.362;2024-03-29T16:59:24;17.40;88.70
5647;DHT22;2845;48.626;9.362;2024-03-29T17:01:59;15.50;86.30
5647;DHT22;2845;48.626;9.362;2024-03-29T17:04:32;15.40;87.10
5647;DHT22;2845;48.626;9.362;2024-03-29T17:07:08;15.20;87.50
5647;DHT22;2845;48.626;9.362;2024-03-29T17:09:42;15.10;90.30